Terminal Aerodrome Forecast
Issued by NWS

Home | Current Version | Previous Version | Graphics & Text | Print | Product List | Glossary On
Versions: 1 2 3 4 5 6 7 8 9 10 11 12 13
044
FTUS43 KBIS 311132
TAFMOT
TAF
KMOT 311132Z 3112/0112 07007KT P6SM SCT060
     FM311500 11012KT P6SM BKN150
     FM311800 13018G25KT P6SM SCT250
     FM010700 13012KT P6SM FEW250
     FM010900 14010KT P6SM FEW250 WS020/18035KT=

USA.gov is the U.S. government's official web portal to all federal, state and local government web resources and services.